sensor_id;sensor_type;location;lat;lon;timestamp;temperature;humidity
39925;DHT22;25592;49.986;11.618;2023-06-14T00:01:45;20.00;61.10
39925;DHT22;25592;49.986;11.618;2023-06-14T00:04:34;19.90;61.30
39925;DHT22;25592;49.986;11.618;2023-06-14T00:07:36;20.00;61.20
39925;DHT22;25592;49.986;11.618;2023-06-14T00:10:23;19.90;61.70
39925;DHT22;25592;49.986;11.618;2023-06-14T00:13:09;19.90;61.70
39925;DHT22;25592;49.986;11.618;2023-06-14T00:15:55;19.80;62.30
39925;DHT22;25592;49.986;11.618;2023-06-14T00:18:40;19.70;62.80
39925;DHT22;25592;49.986;11.618;2023-06-14T00:21:27;19.70;62.40
39925;DHT22;25592;49.986;11.618;2023-06-14T00:24:13;19.80;62.60
39925;DHT22;25592;49.986;11.618;2023-06-14T00:26:58;19.70;62.50
39925;DHT22;25592;49.986;11.618;2023-06-14T00:29:44;19.70;62.50
39925;DHT22;25592;49.986;11.618;2023-06-14T00:32:29;19.60;62.50
39925;DHT22;25592;49.986;11.618;2023-06-14T00:35:15;19.60;62.80
39925;DHT22;25592;49.986;11.618;2023-06-14T00:38:01;19.60;63.10
39925;DHT22;25592;49.986;11.618;2023-06-14T00:40:47;19.50;63.30
39925;DHT22;25592;49.986;11.618;2023-06-14T00:43:32;19.50;62.80
39925;DHT22;25592;49.986;11.618;2023-06-14T00:46:19;19.50;63.00
39925;DHT22;25592;49.986;11.618;2023-06-14T00:49:08;19.50;63.30
39925;DHT22;25592;49.986;11.618;2023-06-14T00:51:54;19.40;63.70
39925;DHT22;25592;49.986;11.618;2023-06-14T00:54:40;19.30;63.80
39925;DHT22;25592;49.986;11.618;2023-06-14T00:57:27;19.40;63.50
39925;DHT22;25592;49.986;11.618;2023-06-14T01:00:13;19.30;63.30
39925;DHT22;25592;49.986;11.618;2023-06-14T01:02:58;19.30;63.40
39925;DHT22;25592;49.986;11.618;2023-06-14T01:05:44;19.20;63.50
39925;DHT22;25592;49.986;11.618;2023-06-14T01:09:15;19.20;63.60
39925;DHT22;25592;49.986;11.618;2023-06-14T01:15:04;19.00;64.10
39925;DHT22;25592;49.986;11.618;2023-06-14T01:17:50;19.00;64.20
39925;DHT22;25592;49.986;11.618;2023-06-14T01:20:36;19.00;64.20
39925;DHT22;25592;49.986;11.618;2023-06-14T01:23:23;19.00;64.10
39925;DHT22;25592;49.986;11.618;2023-06-14T01:26:09;18.90;64.20
39925;DHT22;25592;49.986;11.618;2023-06-14T01:28:55;18.80;64.40
39925;DHT22;25592;49.986;11.618;2023-06-14T01:31:44;18.90;64.70
39925;DHT22;25592;49.986;11.618;2023-06-14T01:34:30;18.80;64.80
39925;DHT22;25592;49.986;11.618;2023-06-14T01:37:16;18.80;64.70
39925;DHT22;25592;49.986;11.618;2023-06-14T01:40:05;18.70;65.10
39925;DHT22;25592;49.986;11.618;2023-06-14T01:42:52;18.60;65.70
39925;DHT22;25592;49.986;11.618;2023-06-14T01:45:37;18.60;65.00
39925;DHT22;25592;49.986;11.618;2023-06-14T01:48:23;18.60;65.80
39925;DHT22;25592;49.986;11.618;2023-06-14T01:51:09;18.50;66.30
39925;DHT22;25592;49.986;11.618;2023-06-14T01:53:54;18.60;65.70
39925;DHT22;25592;49.986;11.618;2023-06-14T01:56:40;18.50;65.70
39925;DHT22;25592;49.986;11.618;2023-06-14T01:59:25;18.50;65.60
39925;DHT22;25592;49.986;11.618;2023-06-14T02:02:11;18.50;65.40
39925;DHT22;25592;49.986;11.618;2023-06-14T02:04:56;18.50;65.60
39925;DHT22;25592;49.986;11.618;2023-06-14T02:07:42;18.60;65.50
39925;DHT22;25592;49.986;11.618;2023-06-14T02:10:28;18.60;65.80
39925;DHT22;25592;49.986;11.618;2023-06-14T02:13:13;18.50;66.00
39925;DHT22;25592;49.986;11.618;2023-06-14T02:15:58;18.50;65.30
39925;DHT22;25592;49.986;11.618;2023-06-14T02:18:44;18.40;66.10
39925;DHT22;25592;49.986;11.618;2023-06-14T02:21:30;18.40;65.40
39925;DHT22;25592;49.986;11.618;2023-06-14T02:24:15;18.30;66.30
39925;DHT22;25592;49.986;11.618;2023-06-14T02:27:02;18.30;66.50
39925;DHT22;25592;49.986;11.618;2023-06-14T02:29:47;18.20;66.60
39925;DHT22;25592;49.986;11.618;2023-06-14T02:32:33;18.20;67.20
39925;DHT22;25592;49.986;11.618;2023-06-14T02:35:21;18.20;66.90
39925;DHT22;25592;49.986;11.618;2023-06-14T02:38:09;18.30;66.80
39925;DHT22;25592;49.986;11.618;2023-06-14T02:40:55;18.40;67.00
39925;DHT22;25592;49.986;11.618;2023-06-14T02:43:40;18.30;66.90
39925;DHT22;25592;49.986;11.618;2023-06-14T02:46:26;18.10;66.90
39925;DHT22;25592;49.986;11.618;2023-06-14T02:49:11;18.00;66.90
39925;DHT22;25592;49.986;11.618;2023-06-14T02:51:56;17.90;68.20
39925;DHT22;25592;49.986;11.618;2023-06-14T02:54:42;17.80;68.10
39925;DHT22;25592;49.986;11.618;2023-06-14T02:57:27;17.70;68.30
39925;DHT22;25592;49.986;11.618;2023-06-14T03:00:13;17.80;68.70
39925;DHT22;25592;49.986;11.618;2023-06-14T03:02:59;17.70;69.50
39925;DHT22;25592;49.986;11.618;2023-06-14T03:05:48;17.70;69.30
39925;DHT22;25592;49.986;11.618;2023-06-14T03:08:34;17.70;69.00
39925;DHT22;25592;49.986;11.618;2023-06-14T03:11:23;17.70;69.10
39925;DHT22;25592;49.986;11.618;2023-06-14T03:14:09;17.70;68.80
39925;DHT22;25592;49.986;11.618;2023-06-14T03:16:56;17.80;69.50
39925;DHT22;25592;49.986;11.618;2023-06-14T03:19:42;17.90;69.50
39925;DHT22;25592;49.986;11.618;2023-06-14T03:22:27;17.80;69.30
39925;DHT22;25592;49.986;11.618;2023-06-14T03:25:14;17.80;69.10
39925;DHT22;25592;49.986;11.618;2023-06-14T03:28:00;17.70;68.90
39925;DHT22;25592;49.986;11.618;2023-06-14T03:30:45;17.70;69.90
39925;DHT22;25592;49.986;11.618;2023-06-14T03:33:31;17.70;69.30
39925;DHT22;25592;49.986;11.618;2023-06-14T03:36:16;17.80;69.20
39925;DHT22;25592;49.986;11.618;2023-06-14T03:39:03;17.80;69.10
39925;DHT22;25592;49.986;11.618;2023-06-14T03:41:48;17.90;69.30
39925;DHT22;25592;49.986;11.618;2023-06-14T03:44:33;17.90;69.00
39925;DHT22;25592;49.986;11.618;2023-06-14T03:47:19;17.90;69.10
39925;DHT22;25592;49.986;11.618;2023-06-14T03:50:05;17.70;69.30
39925;DHT22;25592;49.986;11.618;2023-06-14T03:52:50;17.60;69.40
39925;DHT22;25592;49.986;11.618;2023-06-14T03:55:36;17.70;69.40
39925;DHT22;25592;49.986;11.618;2023-06-14T03:58:41;17.60;69.70
39925;DHT22;25592;49.986;11.618;2023-06-14T04:01:26;17.60;69.70
39925;DHT22;25592;49.986;11.618;2023-06-14T04:04:15;17.60;69.10
39925;DHT22;25592;49.986;11.618;2023-06-14T04:07:03;17.60;69.10
39925;DHT22;25592;49.986;11.618;2023-06-14T04:09:49;17.50;69.50
39925;DHT22;25592;49.986;11.618;2023-06-14T04:12:35;17.60;69.50
39925;DHT22;25592;49.986;11.618;2023-06-14T04:15:20;17.60;69.70
39925;DHT22;25592;49.986;11.618;2023-06-14T04:18:06;17.60;69.60
39925;DHT22;25592;49.986;11.618;2023-06-14T04:20:52;17.60;69.60
39925;DHT22;25592;49.986;11.618;2023-06-14T04:23:38;17.60;69.80
39925;DHT22;25592;49.986;11.618;2023-06-14T04:26:24;17.60;70.00
39925;DHT22;25592;49.986;11.618;2023-06-14T04:29:15;17.60;70.10
39925;DHT22;25592;49.986;11.618;2023-06-14T04:32:02;17.60;70.00
39925;DHT22;25592;49.986;11.618;2023-06-14T04:34:47;17.50;70.60
39925;DHT22;25592;49.986;11.618;2023-06-14T04:37:34;17.50;70.60
39925;DHT22;25592;49.986;11.618;2023-06-14T04:40:19;17.60;69.80
39925;DHT22;25592;49.986;11.618;2023-06-14T04:43:05;17.60;69.90
39925;DHT22;25592;49.986;11.618;2023-06-14T04:45:52;17.60;70.30
39925;DHT22;25592;49.986;11.618;2023-06-14T04:48:40;17.60;70.40
39925;DHT22;25592;49.986;11.618;2023-06-14T04:51:26;17.70;70.60
39925;DHT22;25592;49.986;11.618;2023-06-14T04:54:14;17.60;70.90
39925;DHT22;25592;49.986;11.618;2023-06-14T04:57:00;17.70;71.30
39925;DHT22;25592;49.986;11.618;2023-06-14T04:59:45;17.70;71.70
39925;DHT22;25592;49.986;11.618;2023-06-14T05:02:31;17.90;70.40
39925;DHT22;25592;49.986;11.618;2023-06-14T05:05:16;18.10;70.60
39925;DHT22;25592;49.986;11.618;2023-06-14T05:08:03;18.30;70.50
39925;DHT22;25592;49.986;11.618;2023-06-14T05:10:48;18.50;70.40
39925;DHT22;25592;49.986;11.618;2023-06-14T05:13:34;18.60;69.50
39925;DHT22;25592;49.986;11.618;2023-06-14T05:16:20;18.70;68.90
39925;DHT22;25592;49.986;11.618;2023-06-14T05:19:09;18.70;68.60
39925;DHT22;25592;49.986;11.618;2023-06-14T05:21:55;18.70;68.50
39925;DHT22;25592;49.986;11.618;2023-06-14T05:24:40;18.80;68.40
39925;DHT22;25592;49.986;11.618;2023-06-14T05:27:27;18.80;68.40
39925;DHT22;25592;49.986;11.618;2023-06-14T05:30:14;18.80;68.50
39925;DHT22;25592;49.986;11.618;2023-06-14T05:32:59;18.80;69.00
39925;DHT22;25592;49.986;11.618;2023-06-14T05:35:45;18.90;69.00
39925;DHT22;25592;49.986;11.618;2023-06-14T05:38:32;18.90;69.70
39925;DHT22;25592;49.986;11.618;2023-06-14T05:41:17;18.90;69.90
39925;DHT22;25592;49.986;11.618;2023-06-14T05:44:03;18.90;69.80
39925;DHT22;25592;49.986;11.618;2023-06-14T05:46:48;19.00;69.20
39925;DHT22;25592;49.986;11.618;2023-06-14T05:49:34;19.00;69.10
39925;DHT22;25592;49.986;11.618;2023-06-14T05:52:19;19.10;68.40
39925;DHT22;25592;49.986;11.618;2023-06-14T05:55:05;19.10;69.30
39925;DHT22;25592;49.986;11.618;2023-06-14T05:57:50;19.10;67.70
39925;DHT22;25592;49.986;11.618;2023-06-14T06:00:37;19.10;69.20
39925;DHT22;25592;49.986;11.618;2023-06-14T06:03:23;19.00;68.70
39925;DHT22;25592;49.986;11.618;2023-06-14T06:06:08;19.00;69.00
39925;DHT22;25592;49.986;11.618;2023-06-14T06:08:54;18.80;70.20
39925;DHT22;25592;49.986;11.618;2023-06-14T06:11:39;18.80;70.10
39925;DHT22;25592;49.986;11.618;2023-06-14T06:15:02;18.70;70.10
39925;DHT22;25592;49.986;11.618;2023-06-14T06:17:48;18.80;70.00
39925;DHT22;25592;49.986;11.618;2023-06-14T06:20:41;18.80;70.20
39925;DHT22;25592;49.986;11.618;2023-06-14T06:23:26;18.80;69.90
39925;DHT22;25592;49.986;11.618;2023-06-14T06:26:11;18.80;70.10
39925;DHT22;25592;49.986;11.618;2023-06-14T06:28:57;18.70;70.60
39925;DHT22;25592;49.986;11.618;2023-06-14T06:31:43;18.70;70.50
39925;DHT22;25592;49.986;11.618;2023-06-14T06:34:28;18.60;71.30
39925;DHT22;25592;49.986;11.618;2023-06-14T06:37:14;18.70;71.10
39925;DHT22;25592;49.986;11.618;2023-06-14T06:39:59;18.80;70.80
39925;DHT22;25592;49.986;11.618;2023-06-14T06:42:45;18.80;70.70
39925;DHT22;25592;49.986;11.618;2023-06-14T06:45:30;18.90;70.20
39925;DHT22;25592;49.986;11.618;2023-06-14T06:48:16;19.00;70.10
39925;DHT22;25592;49.986;11.618;2023-06-14T06:51:01;19.10;69.50
39925;DHT22;25592;49.986;11.618;2023-06-14T06:53:55;19.20;69.80
39925;DHT22;25592;49.986;11.618;2023-06-14T06:56:40;19.30;69.00
39925;DHT22;25592;49.986;11.618;2023-06-14T06:59:26;19.20;70.30
39925;DHT22;25592;49.986;11.618;2023-06-14T07:02:11;19.30;70.30
39925;DHT22;25592;49.986;11.618;2023-06-14T07:04:57;19.30;70.40
39925;DHT22;25592;49.986;11.618;2023-06-14T07:07:42;19.30;69.70
39925;DHT22;25592;49.986;11.618;2023-06-14T07:10:28;19.40;69.40
39925;DHT22;25592;49.986;11.618;2023-06-14T07:13:13;19.50;69.80
39925;DHT22;25592;49.986;11.618;2023-06-14T07:15:59;19.50;69.60
39925;DHT22;25592;49.986;11.618;2023-06-14T07:18:45;19.50;69.70
39925;DHT22;25592;49.986;11.618;2023-06-14T07:21:31;19.60;68.90
39925;DHT22;25592;49.986;11.618;2023-06-14T07:24:16;19.70;69.10
39925;DHT22;25592;49.986;11.618;2023-06-14T07:27:02;19.80;68.70
39925;DHT22;25592;49.986;11.618;2023-06-14T07:29:49;19.80;68.70
39925;DHT22;25592;49.986;11.618;2023-06-14T07:32:34;19.90;68.80
39925;DHT22;25592;49.986;11.618;2023-06-14T07:35:20;20.00;67.40
39925;DHT22;25592;49.986;11.618;2023-06-14T07:38:05;20.10;66.00
39925;DHT22;25592;49.986;11.618;2023-06-14T07:40:51;20.10;65.00
39925;DHT22;25592;49.986;11.618;2023-06-14T07:43:36;20.10;64.70
39925;DHT22;25592;49.986;11.618;2023-06-14T07:46:22;20.20;63.60
39925;DHT22;25592;49.986;11.618;2023-06-14T07:49:07;20.30;63.70
39925;DHT22;25592;49.986;11.618;2023-06-14T07:51:52;20.40;62.90
39925;DHT22;25592;49.986;11.618;2023-06-14T07:54:38;20.50;61.90
39925;DHT22;25592;49.986;11.618;2023-06-14T07:57:24;20.50;62.30
39925;DHT22;25592;49.986;11.618;2023-06-14T08:00:09;20.50;63.40
39925;DHT22;25592;49.986;11.618;2023-06-14T08:03:00;20.50;60.80
39925;DHT22;25592;49.986;11.618;2023-06-14T08:05:46;20.60;61.00
39925;DHT22;25592;49.986;11.618;2023-06-14T08:08:31;20.70;62.60
39925;DHT22;25592;49.986;11.618;2023-06-14T08:11:17;20.80;61.00
39925;DHT22;25592;49.986;11.618;2023-06-14T08:14:02;20.90;60.20
39925;DHT22;25592;49.986;11.618;2023-06-14T08:16:48;21.00;59.90
39925;DHT22;25592;49.986;11.618;2023-06-14T08:19:33;21.00;60.00
39925;DHT22;25592;49.986;11.618;2023-06-14T08:22:18;21.20;59.70
39925;DHT22;25592;49.986;11.618;2023-06-14T08:25:04;21.30;59.10
39925;DHT22;25592;49.986;11.618;2023-06-14T08:27:49;21.40;59.10
39925;DHT22;25592;49.986;11.618;2023-06-14T08:30:35;21.70;58.40
39925;DHT22;25592;49.986;11.618;2023-06-14T08:33:21;21.70;58.50
39925;DHT22;25592;49.986;11.618;2023-06-14T08:36:06;21.60;58.50
39925;DHT22;25592;49.986;11.618;2023-06-14T08:38:52;21.60;59.50
39925;DHT22;25592;49.986;11.618;2023-06-14T08:41:37;21.80;58.50
39925;DHT22;25592;49.986;11.618;2023-06-14T08:44:22;22.00;57.50
39925;DHT22;25592;49.986;11.618;2023-06-14T08:47:09;22.10;57.80
39925;DHT22;25592;49.986;11.618;2023-06-14T08:49:56;22.40;57.70
39925;DHT22;25592;49.986;11.618;2023-06-14T08:52:45;22.60;56.30
39925;DHT22;25592;49.986;11.618;2023-06-14T08:55:35;22.70;55.90
39925;DHT22;25592;49.986;11.618;2023-06-14T08:58:31;22.80;54.30
39925;DHT22;25592;49.986;11.618;2023-06-14T09:01:19;22.60;54.70
39925;DHT22;25592;49.986;11.618;2023-06-14T09:04:07;22.60;56.10
39925;DHT22;25592;49.986;11.618;2023-06-14T09:06:52;22.90;54.80
39925;DHT22;25592;49.986;11.618;2023-06-14T09:09:40;23.00;54.60
39925;DHT22;25592;49.986;11.618;2023-06-14T09:12:46;23.10;54.60
39925;DHT22;25592;49.986;11.618;2023-06-14T09:15:33;23.20;55.20
39925;DHT22;25592;49.986;11.618;2023-06-14T09:18:18;23.70;55.00
39925;DHT22;25592;49.986;11.618;2023-06-14T09:21:06;23.90;55.40
39925;DHT22;25592;49.986;11.618;2023-06-14T09:23:55;24.20;54.00
39925;DHT22;25592;49.986;11.618;2023-06-14T09:26:40;24.10;53.00
39925;DHT22;25592;49.986;11.618;2023-06-14T09:29:26;24.30;53.00
39925;DHT22;25592;49.986;11.618;2023-06-14T09:32:13;24.40;51.70
39925;DHT22;25592;49.986;11.618;2023-06-14T09:34:59;24.30;51.70
39925;DHT22;25592;49.986;11.618;2023-06-14T09:37:44;24.40;52.10
39925;DHT22;25592;49.986;11.618;2023-06-14T09:40:34;24.70;51.60
39925;DHT22;25592;49.986;11.618;2023-06-14T09:43:19;25.00;52.80
39925;DHT22;25592;49.986;11.618;2023-06-14T09:46:08;25.30;52.30
39925;DHT22;25592;49.986;11.618;2023-06-14T09:48:54;25.40;51.70
39925;DHT22;25592;49.986;11.618;2023-06-14T09:51:43;25.60;52.30
39925;DHT22;25592;49.986;11.618;2023-06-14T09:54:29;25.80;51.60
39925;DHT22;25592;49.986;11.618;2023-06-14T09:57:17;26.00;51.80
39925;DHT22;25592;49.986;11.618;2023-06-14T10:00:06;25.70;50.70
39925;DHT22;25592;49.986;11.618;2023-06-14T10:03:00;25.40;50.50
39925;DHT22;25592;49.986;11.618;2023-06-14T10:05:50;25.50;52.00
39925;DHT22;25592;49.986;11.618;2023-06-14T10:08:36;25.80;51.50
39925;DHT22;25592;49.986;11.618;2023-06-14T10:11:23;26.10;50.50
39925;DHT22;25592;49.986;11.618;2023-06-14T10:14:11;26.30;48.90
39925;DHT22;25592;49.986;11.618;2023-06-14T10:17:08;26.30;49.40
39925;DHT22;25592;49.986;11.618;2023-06-14T10:23:24;26.80;48.50
39925;DHT22;25592;49.986;11.618;2023-06-14T10:26:23;27.00;48.70
39925;DHT22;25592;49.986;11.618;2023-06-14T10:29:09;26.70;48.30
39925;DHT22;25592;49.986;11.618;2023-06-14T10:31:59;27.00;47.80
39925;DHT22;25592;49.986;11.618;2023-06-14T10:34:44;27.30;47.80
39925;DHT22;25592;49.986;11.618;2023-06-14T10:37:30;27.60;46.80
39925;DHT22;25592;49.986;11.618;2023-06-14T10:40:31;27.50;46.90
39925;DHT22;25592;49.986;11.618;2023-06-14T10:43:23;27.40;47.30
39925;DHT22;25592;49.986;11.618;2023-06-14T10:46:16;27.40;48.90
39925;DHT22;25592;49.986;11.618;2023-06-14T10:49:03;27.80;46.70
39925;DHT22;25592;49.986;11.618;2023-06-14T10:51:51;27.40;46.00
39925;DHT22;25592;49.986;11.618;2023-06-14T10:54:37;27.10;47.30
39925;DHT22;25592;49.986;11.618;2023-06-14T10:57:23;26.80;45.90
39925;DHT22;25592;49.986;11.618;2023-06-14T11:00:10;26.60;46.20
39925;DHT22;25592;49.986;11.618;2023-06-14T11:03:23;27.10;47.00
39925;DHT22;25592;49.986;11.618;2023-06-14T11:06:17;26.90;46.30
39925;DHT22;25592;49.986;11.618;2023-06-14T11:12:07;27.60;47.00
39925;DHT22;25592;49.986;11.618;2023-06-14T11:14:55;27.50;46.60
39925;DHT22;25592;49.986;11.618;2023-06-14T11:17:53;27.90;47.90
39925;DHT22;25592;49.986;11.618;2023-06-14T11:20:39;27.90;47.30
39925;DHT22;25592;49.986;11.618;2023-06-14T11:23:25;27.20;46.50
39925;DHT22;25592;49.986;11.618;2023-06-14T11:26:10;27.00;47.60
39925;DHT22;25592;49.986;11.618;2023-06-14T11:29:00;26.80;47.70
39925;DHT22;25592;49.986;11.618;2023-06-14T11:31:46;26.80;47.50
39925;DHT22;25592;49.986;11.618;2023-06-14T11:34:31;27.20;47.90
39925;DHT22;25592;49.986;11.618;2023-06-14T11:37:17;27.20;48.30
39925;DHT22;25592;49.986;11.618;2023-06-14T11:40:04;27.10;47.30
39925;DHT22;25592;49.986;11.618;2023-06-14T11:43:00;26.50;46.50
39925;DHT22;25592;49.986;11.618;2023-06-14T11:45:48;26.30;48.40
39925;DHT22;25592;49.986;11.618;2023-06-14T11:48:51;26.30;48.40
39925;DHT22;25592;49.986;11.618;2023-06-14T11:51:37;26.50;48.40
39925;DHT22;25592;49.986;11.618;2023-06-14T11:54:22;26.80;47.80
39925;DHT22;25592;49.986;11.618;2023-06-14T11:57:08;26.70;47.80
39925;DHT22;25592;49.986;11.618;2023-06-14T11:59:55;26.60;48.60
39925;DHT22;25592;49.986;11.618;2023-06-14T12:02:40;26.50;49.10
39925;DHT22;25592;49.986;11.618;2023-06-14T12:05:26;26.40;51.00
39925;DHT22;25592;49.986;11.618;2023-06-14T12:08:11;26.30;51.90
39925;DHT22;25592;49.986;11.618;2023-06-14T12:11:03;26.60;53.10
39925;DHT22;25592;49.986;11.618;2023-06-14T12:13:49;27.30;52.00
39925;DHT22;25592;49.986;11.618;2023-06-14T12:16:37;27.00;51.60
39925;DHT22;25592;49.986;11.618;2023-06-14T12:19:26;26.90;51.80
39925;DHT22;25592;49.986;11.618;2023-06-14T12:22:14;26.60;52.30
39925;DHT22;25592;49.986;11.618;2023-06-14T12:25:00;26.60;51.60
39925;DHT22;25592;49.986;11.618;2023-06-14T12:27:47;26.40;50.80
39925;DHT22;25592;49.986;11.618;2023-06-14T12:30:33;26.30;51.80
39925;DHT22;25592;49.986;11.618;2023-06-14T12:33:18;26.20;52.10
39925;DHT22;25592;49.986;11.618;2023-06-14T12:36:05;26.10;52.90
39925;DHT22;25592;49.986;11.618;2023-06-14T12:38:51;26.10;53.50
39925;DHT22;25592;49.986;11.618;2023-06-14T12:41:38;26.20;53.20
39925;DHT22;25592;49.986;11.618;2023-06-14T12:44:26;26.00;53.00
39925;DHT22;25592;49.986;11.618;2023-06-14T12:47:12;26.00;52.50
39925;DHT22;25592;49.986;11.618;2023-06-14T12:49:58;25.70;53.40
39925;DHT22;25592;49.986;11.618;2023-06-14T12:52:43;25.50;52.70
39925;DHT22;25592;49.986;11.618;2023-06-14T12:55:28;25.60;53.70
39925;DHT22;25592;49.986;11.618;2023-06-14T12:58:14;25.50;52.80
39925;DHT22;25592;49.986;11.618;2023-06-14T13:01:01;25.40;52.30
39925;DHT22;25592;49.986;11.618;2023-06-14T13:03:47;25.40;51.90
39925;DHT22;25592;49.986;11.618;2023-06-14T13:06:33;25.50;52.20
39925;DHT22;25592;49.986;11.618;2023-06-14T13:09:18;25.70;52.70
39925;DHT22;25592;49.986;11.618;2023-06-14T13:12:04;25.80;52.80
39925;DHT22;25592;49.986;11.618;2023-06-14T13:14:50;25.70;53.40
39925;DHT22;25592;49.986;11.618;2023-06-14T13:17:36;25.90;53.70
39925;DHT22;25592;49.986;11.618;2023-06-14T13:20:25;26.10;54.30
39925;DHT22;25592;49.986;11.618;2023-06-14T13:23:10;26.60;53.10
39925;DHT22;25592;49.986;11.618;2023-06-14T13:25:56;26.90;52.70
39925;DHT22;25592;49.986;11.618;2023-06-14T13:28:42;26.90;52.50
39925;DHT22;25592;49.986;11.618;2023-06-14T13:31:27;26.80;53.30
39925;DHT22;25592;49.986;11.618;2023-06-14T13:34:12;26.80;53.00
39925;DHT22;25592;49.986;11.618;2023-06-14T13:36:58;27.00;53.40
39925;DHT22;25592;49.986;11.618;2023-06-14T13:39:44;26.80;51.80
39925;DHT22;25592;49.986;11.618;2023-06-14T13:42:29;26.70;52.80
39925;DHT22;25592;49.986;11.618;2023-06-14T13:45:17;26.60;52.60
39925;DHT22;25592;49.986;11.618;2023-06-14T13:48:02;26.50;51.70
39925;DHT22;25592;49.986;11.618;2023-06-14T13:50:48;26.40;51.00
39925;DHT22;25592;49.986;11.618;2023-06-14T13:53:33;26.30;52.20
39925;DHT22;25592;49.986;11.618;2023-06-14T13:56:18;26.40;51.90
39925;DHT22;25592;49.986;11.618;2023-06-14T13:59:04;26.20;51.50
39925;DHT22;25592;49.986;11.618;2023-06-14T14:01:49;26.70;51.70
39925;DHT22;25592;49.986;11.618;2023-06-14T14:04:35;27.20;49.40
39925;DHT22;25592;49.986;11.618;2023-06-14T14:07:21;27.70;49.60
39925;DHT22;25592;49.986;11.618;2023-06-14T14:10:07;28.20;49.30
39925;DHT22;25592;49.986;11.618;2023-06-14T14:12:53;28.40;48.40
39925;DHT22;25592;49.986;11.618;2023-06-14T14:15:39;28.50;49.70
39925;DHT22;25592;49.986;11.618;2023-06-14T14:18:25;28.70;49.90
39925;DHT22;25592;49.986;11.618;2023-06-14T14:21:13;28.80;49.30
39925;DHT22;25592;49.986;11.618;2023-06-14T14:23:58;29.00;49.20
39925;DHT22;25592;49.986;11.618;2023-06-14T14:26:44;28.40;47.60
39925;DHT22;25592;49.986;11.618;2023-06-14T14:29:32;27.80;48.30
39925;DHT22;25592;49.986;11.618;2023-06-14T14:32:18;27.70;50.10
39925;DHT22;25592;49.986;11.618;2023-06-14T14:35:04;27.50;49.60
39925;DHT22;25592;49.986;11.618;2023-06-14T14:37:49;27.40;50.30
39925;DHT22;25592;49.986;11.618;2023-06-14T14:40:35;27.40;50.10
39925;DHT22;25592;49.986;11.618;2023-06-14T14:43:22;27.70;50.60
39925;DHT22;25592;49.986;11.618;2023-06-14T14:46:07;27.70;50.40
39925;DHT22;25592;49.986;11.618;2023-06-14T14:48:52;27.30;49.50
39925;DHT22;25592;49.986;11.618;2023-06-14T14:51:37;27.60;51.50
39925;DHT22;25592;49.986;11.618;2023-06-14T14:54:23;27.80;50.10
39925;DHT22;25592;49.986;11.618;2023-06-14T14:57:10;27.90;49.20
39925;DHT22;25592;49.986;11.618;2023-06-14T14:59:55;28.20;50.40
39925;DHT22;25592;49.986;11.618;2023-06-14T15:02:41;28.50;48.90
39925;DHT22;25592;49.986;11.618;2023-06-14T15:05:26;28.90;48.40
39925;DHT22;25592;49.986;11.618;2023-06-14T15:08:12;29.10;49.20
39925;DHT22;25592;49.986;11.618;2023-06-14T15:10:58;29.20;49.00
39925;DHT22;25592;49.986;11.618;2023-06-14T15:13:43;29.40;48.60
39925;DHT22;25592;49.986;11.618;2023-06-14T15:16:29;29.40;47.70
39925;DHT22;25592;49.986;11.618;2023-06-14T15:19:14;29.50;46.70
39925;DHT22;25592;49.986;11.618;2023-06-14T15:22:00;29.50;47.40
39925;DHT22;25592;49.986;11.618;2023-06-14T15:24:45;29.30;47.30
39925;DHT22;25592;49.986;11.618;2023-06-14T15:27:34;29.30;48.40
39925;DHT22;25592;49.986;11.618;2023-06-14T15:30:20;29.50;47.50
39925;DHT22;25592;49.986;11.618;2023-06-14T15:33:05;29.50;48.30
39925;DHT22;25592;49.986;11.618;2023-06-14T15:35:51;29.40;47.60
39925;DHT22;25592;49.986;11.618;2023-06-14T15:38:36;29.20;47.70
39925;DHT22;25592;49.986;11.618;2023-06-14T15:41:22;29.20;48.00
39925;DHT22;25592;49.986;11.618;2023-06-14T15:44:07;28.90;48.00
39925;DHT22;25592;49.986;11.618;2023-06-14T15:46:53;29.30;49.60
39925;DHT22;25592;49.986;11.618;2023-06-14T15:49:39;29.20;48.50
39925;DHT22;25592;49.986;11.618;2023-06-14T15:52:24;29.10;48.10
39925;DHT22;25592;49.986;11.618;2023-06-14T15:55:10;28.80;48.70
39925;DHT22;25592;49.986;11.618;2023-06-14T15:57:56;28.60;48.70
39925;DHT22;25592;49.986;11.618;2023-06-14T16:00:41;28.80;49.40
39925;DHT22;25592;49.986;11.618;2023-06-14T16:03:26;28.90;49.40
39925;DHT22;25592;49.986;11.618;2023-06-14T16:06:13;28.80;48.50
39925;DHT22;25592;49.986;11.618;2023-06-14T16:08:58;28.40;48.80
39925;DHT22;25592;49.986;11.618;2023-06-14T16:11:44;28.60;49.60
39925;DHT22;25592;49.986;11.618;2023-06-14T16:14:29;28.60;49.30
39925;DHT22;25592;49.986;11.618;2023-06-14T16:17:14;28.60;49.60
39925;DHT22;25592;49.986;11.618;2023-06-14T16:20:00;28.30;49.20
39925;DHT22;25592;49.986;11.618;2023-06-14T16:22:45;28.20;49.70
39925;DHT22;25592;49.986;11.618;2023-06-14T16:25:31;28.00;49.50
39925;DHT22;25592;49.986;11.618;2023-06-14T16:28:16;27.90;50.00
39925;DHT22;25592;49.986;11.618;2023-06-14T16:31:01;27.80;49.70
39925;DHT22;25592;49.986;11.618;2023-06-14T16:33:47;28.00;49.30
39925;DHT22;25592;49.986;11.618;2023-06-14T16:36:32;27.90;49.40
39925;DHT22;25592;49.986;11.618;2023-06-14T16:39:18;27.90;49.90
39925;DHT22;25592;49.986;11.618;2023-06-14T16:42:03;27.60;50.10
39925;DHT22;25592;49.986;11.618;2023-06-14T16:44:49;27.50;50.30
39925;DHT22;25592;49.986;11.618;2023-06-14T16:47:36;27.20;51.40
39925;DHT22;25592;49.986;11.618;2023-06-14T16:50:21;27.20;50.60
39925;DHT22;25592;49.986;11.618;2023-06-14T16:53:07;27.20;50.70
39925;DHT22;25592;49.986;11.618;2023-06-14T16:55:53;27.30;51.10
39925;DHT22;25592;49.986;11.618;2023-06-14T16:58:38;27.50;51.00
39925;DHT22;25592;49.986;11.618;2023-06-14T17:01:24;27.40;50.40
39925;DHT22;25592;49.986;11.618;2023-06-14T17:04:10;27.30;50.70
39925;DHT22;25592;49.986;11.618;2023-06-14T17:06:56;27.30;50.60
39925;DHT22;25592;49.986;11.618;2023-06-14T17:09:41;27.20;51.10
39925;DHT22;25592;49.986;11.618;2023-06-14T17:12:27;27.10;50.90
39925;DHT22;25592;49.986;11.618;2023-06-14T17:15:12;27.00;51.70
39925;DHT22;25592;49.986;11.618;2023-06-14T17:17:58;27.00;50.80
39925;DHT22;25592;49.986;11.618;2023-06-14T17:20:44;27.00;51.40
39925;DHT22;25592;49.986;11.618;2023-06-14T17:23:29;27.10;51.40
39925;DHT22;25592;49.986;11.618;2023-06-14T17:26:15;27.20;51.00